Time;durP1;ratioP1;P1;durP2;ratioP2;P2;SDS_P1;SDS_P2;PMS_P1;PMS_P2;Temp;Humidity;BMP_temperature;BMP_pressure;BME280_temperature;BME280_humidity;BME280_pressure;Samples;Min_cycle;Max_cycle;Signal;HPM_P1;HPM_P2
2023/10/13 00:01:11;;;;;;;8.97;4.97;;;23.10;66.10;;;;;;5092422;28;20547;-64
2023/10/13 00:03:39;;;;;;;8.87;5.00;;;23.10;65.90;;;;;;5091218;28;20267;-64
2023/10/13 00:06:08;;;;;;;8.33;5.13;;;23.20;65.60;;;;;;5090976;28;20205;-64
2023/10/13 00:08:38;;;;;;;8.20;5.23;;;23.20;65.60;;;;;;5091886;28;20672;-64
2023/10/13 00:11:05;;;;;;;7.07;4.57;;;23.20;65.60;;;;;;5091264;28;20208;-64
2023/10/13 00:13:42;;;;;;;6.20;4.80;;;23.20;66.30;;;;;;5090625;28;20207;-64
2023/10/13 00:16:16;;;;;;;8.43;4.77;;;23.20;65.60;;;;;;5088412;28;20220;-64
2023/10/13 00:18:43;;;;;;;6.30;4.90;;;23.20;65.60;;;;;;5090835;28;20230;-64
2023/10/13 00:21:15;;;;;;;5.77;4.77;;;23.20;66.40;;;;;;5090225;28;20228;-64
2023/10/13 00:23:52;;;;;;;9.90;5.30;;;23.30;67.20;;;;;;5090567;28;20212;-64
2023/10/13 00:26:23;;;;;;;9.80;4.47;;;23.20;67.70;;;;;;5091861;28;20208;-64
2023/10/13 00:28:58;;;;;;;5.83;5.20;;;23.20;67.40;;;;;;5091851;28;20205;-64
2023/10/13 00:31:28;;;;;;;8.60;5.20;;;23.20;67.00;;;;;;5090860;28;20223;-64
2023/10/13 00:34:01;;;;;;;8.83;5.30;;;23.20;66.90;;;;;;5091711;28;20221;-64
2023/10/13 00:36:27;;;;;;;9.77;5.30;;;23.10;66.60;;;;;;5093375;28;20230;-64
2023/10/13 00:38:56;;;;;;;8.43;4.97;;;23.10;66.70;;;;;;5094164;28;20759;-64
2023/10/13 00:41:44;;;;;;;6.93;4.90;;;23.10;67.00;;;;;;5094862;28;20254;-64
2023/10/13 00:44:08;;;;;;;6.43;4.50;;;23.10;67.40;;;;;;5094616;28;20208;-64
2023/10/13 00:46:36;;;;;;;6.97;5.20;;;23.10;67.60;;;;;;5094701;28;20262;-64
2023/10/13 00:49:08;;;;;;;7.43;5.30;;;23.10;67.50;;;;;;5095030;28;20559;-64
2023/10/13 00:51:35;;;;;;;10.20;5.53;;;23.10;67.70;;;;;;5094265;28;20224;-63
2023/10/13 00:54:11;;;;;;;5.97;4.80;;;23.10;68.10;;;;;;5094604;28;20664;-64
2023/10/13 00:56:40;;;;;;;6.33;5.03;;;23.00;68.30;;;;;;5094434;28;20227;-64
2023/10/13 00:59:09;;;;;;;9.20;5.30;;;23.00;68.20;;;;;;5094407;28;20207;-63
2023/10/13 01:01:36;;;;;;;8.77;5.27;;;23.00;67.50;;;;;;5094600;28;20614;-63
2023/10/13 01:04:05;;;;;;;6.40;5.17;;;23.10;67.60;;;;;;5093992;28;20231;-63
2023/10/13 01:06:32;;;;;;;7.50;4.90;;;23.10;66.60;;;;;;5094245;28;20201;-64
2023/10/13 01:09:11;;;;;;;7.43;4.70;;;23.00;65.80;;;;;;5094476;28;20289;-63
2023/10/13 01:11:40;;;;;;;5.30;4.17;;;23.10;65.50;;;;;;5090695;28;20205;-63
2023/10/13 01:14:07;;;;;;;7.13;4.93;;;23.00;65.40;;;;;;5084744;28;20671;-63
2023/10/13 01:16:33;;;;;;;7.60;4.67;;;23.00;65.20;;;;;;5090808;28;20208;-63
2023/10/13 01:19:04;;;;;;;8.40;4.40;;;23.00;65.10;;;;;;5093659;28;20199;-63
2023/10/13 01:21:32;;;;;;;8.60;4.60;;;23.00;64.80;;;;;;5093990;28;20224;-64
2023/10/13 01:24:01;;;;;;;6.50;4.93;;;23.00;65.00;;;;;;5093331;28;20204;-64
2023/10/13 01:26:27;;;;;;;7.20;4.70;;;23.00;64.70;;;;;;5094039;28;20196;-64
2023/10/13 01:28:58;;;;;;;6.37;4.33;;;23.00;64.40;;;;;;5093864;28;20619;-64
2023/10/13 01:31:26;;;;;;;5.77;4.00;;;23.00;64.20;;;;;;5083729;28;20227;-63
2023/10/13 01:33:54;;;;;;;6.60;4.40;;;23.00;63.90;;;;;;5093692;28;20464;-63
2023/10/13 01:36:21;;;;;;;7.40;4.60;;;23.00;63.50;;;;;;5093497;28;20216;-63
2023/10/13 01:38:49;;;;;;;7.57;4.67;;;23.00;63.10;;;;;;5093500;28;20702;-63
2023/10/13 01:41:18;;;;;;;6.40;4.27;;;23.00;63.00;;;;;;5093565;28;20224;-63
2023/10/13 01:43:45;;;;;;;7.10;4.23;;;23.00;62.60;;;;;;5093610;28;20208;-63
2023/10/13 01:46:13;;;;;;;6.57;4.43;;;22.90;62.40;;;;;;5092737;28;20696;-64
2023/10/13 01:48:41;;;;;;;7.47;4.40;;;23.00;61.90;;;;;;5092724;28;20292;-64
2023/10/13 01:51:09;;;;;;;7.73;4.40;;;23.00;61.80;;;;;;5093010;28;20212;-64
2023/10/13 01:53:37;;;;;;;4.73;3.50;;;23.00;61.40;;;;;;5093267;28;20293;-64
2023/10/13 01:56:09;;;;;;;4.57;3.70;;;23.00;61.20;;;;;;5093263;28;20204;-64
2023/10/13 01:58:41;;;;;;;6.83;4.03;;;23.00;60.90;;;;;;5092846;28;20193;-64
2023/10/13 02:01:09;;;;;;;6.03;3.93;;;23.00;60.50;;;;;;5092214;28;20235;-64
2023/10/13 02:03:40;;;;;;;6.57;3.83;;;23.00;60.20;;;;;;5092760;28;20200;-64
2023/10/13 02:06:10;;;;;;;8.03;4.20;;;23.10;60.20;;;;;;5092924;28;20260;-64
2023/10/13 02:08:40;;;;;;;8.43;4.20;;;23.00;60.00;;;;;;5092761;28;20211;-64
2023/10/13 02:11:08;;;;;;;12.00;4.40;;;23.00;59.90;;;;;;5093170;28;20196;-64
2023/10/13 02:13:41;;;;;;;7.03;4.10;;;23.00;59.90;;;;;;5092698;28;20212;-64
2023/10/13 02:16:11;;;;;;;7.27;4.73;;;23.00;59.80;;;;;;5092250;28;20203;-63
2023/10/13 02:18:41;;;;;;;6.13;4.37;;;23.00;59.80;;;;;;5091951;28;20782;-64
2023/10/13 02:21:13;;;;;;;6.63;3.83;;;23.00;59.60;;;;;;5092584;28;20284;-64
2023/10/13 02:23:44;;;;;;;6.10;4.13;;;23.00;59.40;;;;;;5092579;28;20216;-64
2023/10/13 02:26:12;;;;;;;8.30;4.20;;;22.90;59.40;;;;;;5091359;28;20232;-64
2023/10/13 02:28:38;;;;;;;6.53;4.20;;;22.90;59.50;;;;;;5092388;28;20660;-64
2023/10/13 02:31:06;;;;;;;7.77;3.93;;;23.00;59.40;;;;;;5092071;28;20240;-64
2023/10/13 02:33:34;;;;;;;5.30;4.00;;;23.00;59.40;;;;;;5093253;28;20200;-64
2023/10/13 02:36:04;;;;;;;6.40;4.23;;;22.90;59.30;;;;;;5094061;28;20674;-64
2023/10/13 02:38:34;;;;;;;7.17;4.20;;;22.90;59.60;;;;;;5093195;28;20204;-64
2023/10/13 02:41:05;;;;;;;8.13;4.77;;;22.90;59.90;;;;;;5092850;28;20197;-63
2023/10/13 02:43:33;;;;;;;8.17;3.90;;;22.80;59.90;;;;;;5093185;28;20208;-64
2023/10/13 02:46:01;;;;;;;5.53;3.87;;;22.80;59.90;;;;;;5092491;28;20216;-63
2023/10/13 02:48:30;;;;;;;6.13;3.60;;;22.70;60.20;;;;;;5093121;28;20340;-64
2023/10/13 02:51:05;;;;;;;5.47;4.00;;;22.70;60.60;;;;;;5092705;28;20291;-63
2023/10/13 02:53:34;;;;;;;7.83;4.73;;;22.60;61.20;;;;;;5092748;28;20223;-63
2023/10/13 02:56:05;;;;;;;4.27;3.77;;;22.60;60.80;;;;;;5092951;28;20192;-64
2023/10/13 02:58:37;;;;;;;5.27;4.30;;;22.50;61.20;;;;;;5091828;28;20228;-63
2023/10/13 03:01:16;;;;;;;7.43;4.60;;;22.40;61.70;;;;;;5092659;28;20197;-63
2023/10/13 03:03:43;;;;;;;6.47;4.23;;;22.30;61.90;;;;;;5092215;28;20246;-63
2023/10/13 03:06:13;;;;;;;5.77;3.97;;;22.30;61.20;;;;;;5091128;28;20217;-63
2023/10/13 03:08:39;;;;;;;8.20;4.60;;;22.30;60.80;;;;;;5091565;28;20582;-64
2023/10/13 03:11:06;;;;;;;9.07;4.67;;;22.30;61.00;;;;;;5091760;28;20228;-63
2023/10/13 03:13:33;;;;;;;7.07;3.80;;;22.30;61.00;;;;;;5091670;28;20212;-64
2023/10/13 03:15:59;;;;;;;5.73;4.43;;;22.30;60.50;;;;;;5091565;28;20203;-64
2023/10/13 03:18:26;;;;;;;5.90;3.97;;;22.30;60.90;;;;;;5091545;28;20725;-64
2023/10/13 03:20:57;;;;;;;7.67;4.17;;;22.30;61.20;;;;;;5091917;28;20280;-63
2023/10/13 03:23:24;;;;;;;5.60;4.20;;;22.20;61.50;;;;;;5091619;28;20220;-65
2023/10/13 03:25:55;;;;;;;5.73;3.87;;;22.10;61.80;;;;;;5091230;28;20313;-64
2023/10/13 03:28:25;;;;;;;6.67;4.13;;;22.10;61.70;;;;;;5091337;28;20633;-64
2023/10/13 03:30:53;;;;;;;6.40;4.20;;;22.00;61.60;;;;;;5092766;28;20231;-64
2023/10/13 03:33:26;;;;;;;8.07;5.20;;;22.00;61.80;;;;;;5091444;28;20204;-64
2023/10/13 03:35:54;;;;;;;6.17;4.27;;;21.90;62.20;;;;;;5091080;28;20213;-63
2023/10/13 03:38:27;;;;;;;6.10;4.67;;;21.90;62.90;;;;;;5091888;28;20207;-64
2023/10/13 03:41:07;;;;;;;6.83;4.43;;;21.80;63.40;;;;;;5091599;28;20207;-64
2023/10/13 03:43:44;;;;;;;5.60;4.30;;;21.70;63.90;;;;;;5091042;28;20289;-63
2023/10/13 03:46:11;;;;;;;6.90;4.47;;;21.50;63.90;;;;;;5091561;28;20255;-63
2023/10/13 03:48:51;;;;;;;7.40;4.37;;;21.40;64.60;;;;;;5091123;28;20224;-63
2023/10/13 03:51:19;;;;;;;5.57;4.80;;;21.40;64.90;;;;;;5091260;28;20208;-63
2023/10/13 03:53:52;;;;;;;7.07;4.27;;;21.30;65.20;;;;;;5090888;28;20203;-64
2023/10/13 03:56:28;;;;;;;8.37;4.30;;;21.30;65.50;;;;;;5091327;28;20188;-64
2023/10/13 03:58:58;;;;;;;6.20;4.60;;;21.20;66.50;;;;;;5089709;28;20211;-64
2023/10/13 04:01:31;;;;;;;6.60;4.17;;;21.20;66.10;;;;;;5091079;28;20229;-63
2023/10/13 04:04:03;;;;;;;5.93;4.50;;;21.20;66.10;;;;;;5090992;28;20205;-63
2023/10/13 04:15:15;;;;;;;7.23;5.20;;;21.00;66.40;;;;;;5095411;28;20209;-64
2023/10/13 04:17:45;;;;;;;5.23;4.17;;;20.90;66.40;;;;;;5094506;28;20200;-64
2023/10/13 04:20:26;;;;;;;8.67;4.50;;;20.90;66.60;;;;;;5095001;28;20204;-63
2023/10/13 04:25:52;;;;;;;10.10;4.77;;;20.90;67.30;;;;;;5095490;28;20293;-63
2023/10/13 04:28:34;;;;;;;7.03;5.13;;;20.80;67.00;;;;;;5077766;28;20213;-64
2023/10/13 04:31:11;;;;;;;10.20;5.40;;;20.80;68.00;;;;;;5094450;28;20227;-63
2023/10/13 04:33:50;;;;;;;6.77;4.47;;;20.70;68.30;;;;;;5094777;28;20200;-62
2023/10/13 04:36:21;;;;;;;5.87;4.80;;;20.70;68.20;;;;;;5094789;28;20745;-64
2023/10/13 04:38:59;;;;;;;6.53;4.80;;;20.70;67.90;;;;;;5094708;28;20212;-63
2023/10/13 04:41:31;;;;;;;8.27;5.50;;;20.70;67.90;;;;;;5095214;28;20228;-64
2023/10/13 04:44:22;;;;;;;8.60;4.90;;;20.60;67.90;;;;;;5094439;28;20201;-64
2023/10/13 04:49:49;;;;;;;7.53;4.73;;;20.50;68.60;;;;;;5093904;28;20210;-63
2023/10/13 04:52:45;;;;;;;6.27;4.30;;;20.40;69.00;;;;;;5094461;28;20291;-64
2023/10/13 04:55:32;;;;;;;7.07;4.80;;;20.40;70.10;;;;;;5094354;28;20244;-64
2023/10/13 04:58:10;;;;;;;9.03;5.13;;;20.30;69.60;;;;;;5094514;28;20215;-64
2023/10/13 05:01:09;;;;;;;6.47;4.90;;;20.30;69.40;;;;;;5075655;28;20194;-64
2023/10/13 05:03:52;;;;;;;5.63;5.03;;;20.30;69.50;;;;;;5092967;28;20196;-64
2023/10/13 05:44:37;;;;;;;5.50;4.73;;;19.90;70.90;;;;;;5092095;28;20212;-65
2023/10/13 05:47:46;;;;;;;7.27;5.40;;;19.90;71.10;;;;;;5091703;28;20274;-64
2023/10/13 05:50:29;;;;;;;7.13;4.53;;;19.90;71.20;;;;;;5092239;28;20443;-64
2023/10/13 06:28:41;;;;;;;6.87;5.60;;;19.60;72.00;;;;;;5091529;28;20224;-65
2023/10/13 06:31:14;;;;;;;6.67;5.37;;;19.60;72.40;;;;;;5090563;28;20213;-64
2023/10/13 06:33:45;;;;;;;6.73;4.60;;;19.50;72.30;;;;;;5089362;28;20208;-64
2023/10/13 06:36:12;;;;;;;7.50;4.90;;;19.60;72.60;;;;;;5090184;28;20209;-64
2023/10/13 06:38:41;;;;;;;10.03;4.83;;;19.60;72.60;;;;;;5090444;28;20358;-64
2023/10/13 06:41:09;;;;;;;7.53;5.60;;;19.60;72.80;;;;;;5092083;28;20512;-65
2023/10/13 06:43:40;;;;;;;8.27;4.83;;;19.60;72.70;;;;;;5092325;28;20200;-64
2023/10/13 06:46:14;;;;;;;8.13;5.27;;;19.60;72.60;;;;;;5092022;28;20236;-64
2023/10/13 06:48:41;;;;;;;7.23;5.77;;;19.70;72.70;;;;;;5092895;28;20294;-65
2023/10/13 06:51:17;;;;;;;7.80;5.97;;;19.70;72.60;;;;;;5095754;28;20208;-65
2023/10/13 06:53:48;;;;;;;9.13;5.53;;;19.80;72.60;;;;;;5095560;28;20199;-64
2023/10/13 06:56:17;;;;;;;9.10;5.20;;;19.80;72.60;;;;;;5091354;28;20221;-64
2023/10/13 06:58:44;;;;;;;8.80;5.40;;;19.80;72.60;;;;;;5090077;28;20204;-64
2023/10/13 07:01:14;;;;;;;8.03;5.33;;;19.90;72.70;;;;;;5089928;28;20236;-65
2023/10/13 07:03:41;;;;;;;8.07;6.13;;;19.90;72.70;;;;;;5089487;28;20236;-64
2023/10/13 07:06:11;;;;;;;9.97;6.33;;;20.00;72.80;;;;;;5089984;28;20314;-65
2023/10/13 07:08:38;;;;;;;9.77;6.83;;;20.10;72.90;;;;;;5090452;28;20205;-64
2023/10/13 07:11:08;;;;;;;10.70;7.03;;;20.20;72.80;;;;;;5089641;28;20200;-64
2023/10/13 07:13:37;;;;;;;12.67;6.63;;;20.20;72.70;;;;;;5070348;28;20209;-64
2023/10/13 07:16:07;;;;;;;9.07;6.23;;;20.30;72.60;;;;;;5069247;28;20684;-64
2023/10/13 07:18:37;;;;;;;9.40;7.07;;;20.30;72.30;;;;;;5069405;28;20551;-64
2023/10/13 07:21:10;;;;;;;9.70;6.50;;;20.50;72.00;;;;;;5076862;28;20197;-64
2023/10/13 07:23:37;;;;;;;9.33;5.77;;;20.60;71.70;;;;;;5089481;28;20553;-65
2023/10/13 07:26:08;;;;;;;8.37;5.97;;;20.70;71.30;;;;;;5089313;28;20338;-64
2023/10/13 07:28:36;;;;;;;9.70;5.57;;;20.70;71.40;;;;;;5089304;28;20319;-65
2023/10/13 07:31:16;;;;;;;7.90;5.50;;;20.80;71.10;;;;;;5089434;28;20207;-65
2023/10/13 07:33:45;;;;;;;7.30;5.20;;;20.90;70.90;;;;;;5089046;28;20209;-64
2023/10/13 07:36:18;;;;;;;8.10;4.93;;;21.10;70.60;;;;;;5089417;28;20200;-64
2023/10/13 07:38:48;;;;;;;7.53;4.80;;;21.30;70.70;;;;;;5089361;28;20211;-65
2023/10/13 07:41:17;;;;;;;6.73;5.00;;;21.40;69.90;;;;;;5088784;28;20215;-64
2023/10/13 07:43:45;;;;;;;5.67;4.80;;;21.50;69.10;;;;;;5089087;28;20288;-65
2023/10/13 07:46:12;;;;;;;5.27;4.47;;;21.70;69.10;;;;;;5088086;28;20220;-65
2023/10/13 07:48:40;;;;;;;8.40;4.93;;;21.90;68.90;;;;;;5089011;28;20204;-65
2023/10/13 07:51:11;;;;;;;6.13;5.10;;;22.00;68.70;;;;;;5088895;28;20304;-64
2023/10/13 07:53:43;;;;;;;9.80;5.93;;;22.10;68.00;;;;;;5088564;28;20200;-65
2023/10/13 07:56:11;;;;;;;9.10;5.87;;;22.30;67.50;;;;;;5088995;28;20204;-64
2023/10/13 07:58:52;;;;;;;10.70;5.37;;;22.40;66.70;;;;;;5088874;28;20219;-65
2023/10/13 08:01:19;;;;;;;9.73;4.80;;;22.60;65.90;;;;;;5088979;28;20298;-65
2023/10/13 08:03:47;;;;;;;10.23;5.30;;;22.70;65.00;;;;;;5087547;28;20291;-64
2023/10/13 08:06:28;;;;;;;8.03;4.90;;;22.90;65.20;;;;;;5088755;28;20216;-65
2023/10/13 08:08:59;;;;;;;6.33;4.50;;;23.00;64.90;;;;;;5088714;28;20204;-65
2023/10/13 08:11:27;;;;;;;7.93;4.50;;;23.20;63.60;;;;;;5088543;28;20204;-65
2023/10/13 08:13:58;;;;;;;8.47;4.50;;;23.30;62.50;;;;;;5088661;28;20277;-65
2023/10/13 08:16:44;;;;;;;8.57;4.47;;;23.50;62.30;;;;;;5088340;28;20627;-65
2023/10/13 08:19:13;;;;;;;5.33;4.23;;;23.60;61.00;;;;;;5088852;28;20239;-65
2023/10/13 08:21:42;;;;;;;10.03;4.20;;;23.80;60.80;;;;;;5088683;28;20663;-65
2023/10/13 08:24:15;;;;;;;8.87;4.40;;;23.90;59.40;;;;;;5088261;28;20647;-65
2023/10/13 08:32:43;;;;;;;9.53;4.33;;;24.20;57.50;;;;;;5088845;28;20206;-64
2023/10/13 08:35:22;;;;;;;5.73;3.77;;;24.30;57.70;;;;;;5088748;28;20244;-64
2023/10/13 08:37:59;;;;;;;4.50;4.07;;;24.40;57.40;;;;;;5056099;28;20668;-64
2023/10/13 08:43:14;;;;;;;6.53;4.10;;;24.70;56.90;;;;;;5088656;28;20204;-65
2023/10/13 08:45:58;;;;;;;6.47;4.30;;;24.80;56.60;;;;;;5366550;22;20804;-64
2023/10/13 08:48:35;;;;;;;7.40;4.10;;;24.90;57.20;;;;;;5056213;28;20201;-65
2023/10/13 08:51:12;;;;;;;6.07;3.90;;;25.00;57.10;;;;;;5049677;28;20251;-65
2023/10/13 08:53:52;;;;;;;7.53;4.00;;;25.10;56.10;;;;;;5049881;28;20231;-64
2023/10/13 08:56:32;;;;;;;8.67;4.07;;;25.30;55.10;;;;;;5049867;28;20213;-64
2023/10/13 08:59:05;;;;;;;5.43;3.60;;;25.40;54.90;;;;;;5054371;28;20201;-64
2023/10/13 09:01:35;;;;;;;10.17;3.90;;;25.50;54.20;;;;;;5053530;28;20563;-65
2023/10/13 09:06:47;;;;;;;5.60;3.73;;;25.80;52.60;;;;;;5052264;28;20383;-64
2023/10/13 09:09:26;;;;;;;5.50;3.40;;;25.90;51.80;;;;;;5056095;28;20209;-64
2023/10/13 09:12:07;;;;;;;7.90;3.53;;;26.10;51.90;;;;;;5073263;28;20247;-64
2023/10/13 09:14:35;;;;;;;5.30;3.60;;;26.10;51.40;;;;;;5072707;28;20205;-64
2023/10/13 09:17:12;;;;;;;5.53;3.53;;;26.30;51.10;;;;;;5072344;28;20235;-64
2023/10/13 09:19:49;;;;;;;8.60;4.27;;;26.50;50.80;;;;;;5059381;28;20212;-64
2023/10/13 09:22:27;;;;;;;6.33;3.57;;;26.60;49.50;;;;;;5070248;28;20197;-65
2023/10/13 09:24:58;;;;;;;6.57;4.00;;;26.80;49.60;;;;;;5072859;28;20216;-64
2023/10/13 09:27:26;;;;;;;5.93;3.70;;;27.00;49.20;;;;;;5072307;28;20225;-65
2023/10/13 09:29:57;;;;;;;7.60;3.70;;;27.10;48.10;;;;;;5072271;28;20221;-64
2023/10/13 09:32:25;;;;;;;6.90;6.20;;;27.20;48.50;;;;;;5072866;28;20198;-64
2023/10/13 09:34:51;;;;;;;4.57;3.53;;;27.40;48.60;;;;;;5072537;28;20212;-65
2023/10/13 09:37:21;;;;;;;4.80;3.67;;;27.60;47.60;;;;;;5075525;28;20194;-64
2023/10/13 09:39:52;;;;;;;6.63;4.10;;;27.70;46.90;;;;;;5079843;28;20213;-65
2023/10/13 09:42:23;;;;;;;5.90;4.33;;;27.70;45.20;;;;;;5079421;28;20253;-65
2023/10/13 09:44:55;;;;;;;6.73;3.50;;;27.80;44.40;;;;;;5078259;28;20260;-64
2023/10/13 09:47:30;;;;;;;7.03;3.50;;;27.90;44.70;;;;;;5075298;28;20277;-64
2023/10/13 09:50:05;;;;;;;6.47;3.60;;;28.10;44.10;;;;;;5077701;28;20228;-64
2023/10/13 09:52:33;;;;;;;7.20;4.00;;;28.30;43.70;;;;;;5078111;28;20228;-65
2023/10/13 09:55:18;;;;;;;5.60;3.30;;;28.40;43.10;;;;;;5077865;28;20207;-64
2023/10/13 09:57:57;;;;;;;5.17;3.50;;;28.50;42.40;;;;;;5076025;28;20239;-65
2023/10/13 10:00:46;;;;;;;6.07;3.50;;;28.70;42.10;;;;;;5072939;28;20559;-64
2023/10/13 10:06:06;;;;;;;4.53;3.20;;;28.90;42.30;;;;;;5031525;28;20245;-66
2023/10/13 10:08:33;;;;;;;9.70;3.20;;;29.00;40.10;;;;;;5062459;28;20260;-64
2023/10/13 10:11:40;;;;;;;7.77;3.10;;;29.20;41.40;;;;;;5061672;28;20214;-64
2023/10/13 10:14:12;;;;;;;5.97;3.60;;;29.30;39.60;;;;;;5042721;28;20220;-65
2023/10/13 10:16:51;;;;;;;6.10;3.23;;;29.50;39.80;;;;;;5051717;28;20219;-63
2023/10/13 10:19:19;;;;;;;4.97;3.20;;;29.50;39.00;;;;;;5031824;28;20209;-64
2023/10/13 10:21:48;;;;;;;5.43;3.07;;;29.60;39.80;;;;;;5045253;28;20228;-64
2023/10/13 10:24:23;;;;;;;6.97;3.70;;;29.80;39.60;;;;;;5051797;28;20206;-64
2023/10/13 10:26:53;;;;;;;5.03;3.07;;;29.90;38.60;;;;;;5051519;28;20221;-64
2023/10/13 10:29:20;;;;;;;7.00;2.93;;;30.00;37.70;;;;;;5031610;28;20202;-64
2023/10/13 10:31:47;;;;;;;7.27;3.57;;;30.10;38.70;;;;;;5044032;28;20748;-65
2023/10/13 10:34:18;;;;;;;4.60;3.10;;;30.20;38.40;;;;;;5051141;28;20649;-64
2023/10/13 10:36:54;;;;;;;6.03;3.07;;;30.30;38.30;;;;;;5053275;28;20527;-64
2023/10/13 10:39:33;;;;;;;5.73;3.67;;;30.40;37.60;;;;;;5070902;28;20193;-64
2023/10/13 10:42:15;;;;;;;5.63;3.53;;;30.60;38.50;;;;;;5071330;28;20326;-65
2023/10/13 10:44:43;;;;;;;3.80;3.00;;;30.60;36.90;;;;;;5069317;28;20197;-64
2023/10/13 10:47:11;;;;;;;8.47;3.40;;;30.80;38.10;;;;;;5070804;28;20282;-65
2023/10/13 10:49:40;;;;;;;5.33;3.40;;;30.80;36.80;;;;;;5070548;28;20208;-66
2023/10/13 10:52:18;;;;;;;4.40;3.10;;;30.90;37.30;;;;;;5053958;28;20455;-65
2023/10/13 10:54:51;;;;;;;5.53;3.37;;;31.00;36.90;;;;;;5053421;28;20233;-64
2023/10/13 10:57:18;;;;;;;7.27;3.40;;;31.10;37.00;;;;;;5070670;28;20753;-64
2023/10/13 10:59:46;;;;;;;5.60;3.50;;;31.20;36.70;;;;;;5051995;28;20195;-64
2023/10/13 11:02:18;;;;;;;4.33;3.30;;;31.30;36.00;;;;;;5059874;28;20293;-64
2023/10/13 11:04:51;;;;;;;9.87;3.70;;;31.30;36.10;;;;;;5050839;28;20662;-64
2023/10/13 11:07:24;;;;;;;6.63;3.47;;;31.40;35.00;;;;;;5050734;28;20698;-64
2023/10/13 11:09:52;;;;;;;6.07;3.60;;;31.30;34.90;;;;;;5050365;28;20209;-64
2023/10/13 11:12:25;;;;;;;11.47;3.30;;;31.50;35.50;;;;;;5050850;28;20215;-64
2023/10/13 11:15:05;;;;;;;8.50;3.73;;;31.50;34.60;;;;;;5052041;28;20200;-64
2023/10/13 11:17:41;;;;;;;5.13;3.73;;;31.50;34.70;;;;;;5050310;28;20621;-64
2023/10/13 11:20:16;;;;;;;7.37;3.30;;;31.50;34.20;;;;;;5049823;28;20257;-64
2023/10/13 11:22:47;;;;;;;5.53;3.10;;;31.40;33.30;;;;;;5050617;28;20206;-64
2023/10/13 11:25:29;;;;;;;7.03;3.50;;;31.40;34.30;;;;;;5058763;28;20198;-64
2023/10/13 11:27:57;;;;;;;5.77;3.23;;;31.50;34.00;;;;;;5070550;28;20232;-64
2023/10/13 11:30:29;;;;;;;7.50;3.27;;;31.50;33.80;;;;;;5065794;28;20229;-63
2023/10/13 11:33:00;;;;;;;7.07;3.50;;;31.50;33.70;;;;;;5050067;28;20233;-64
2023/10/13 11:35:48;;;;;;;7.53;3.63;;;31.60;33.70;;;;;;5050285;28;20207;-63
2023/10/13 11:38:25;;;;;;;8.70;3.67;;;31.50;33.80;;;;;;5050199;28;20226;-63
2023/10/13 11:44:06;;;;;;;8.17;3.43;;;31.60;33.80;;;;;;5059561;28;20200;-64
2023/10/13 11:49:36;;;;;;;11.00;3.70;;;31.70;34.40;;;;;;5027817;28;20792;-64
2023/10/13 11:52:19;;;;;;;6.47;3.13;;;31.90;34.70;;;;;;5025571;28;20285;-64
2023/10/13 11:54:47;;;;;;;5.63;3.33;;;32.10;33.80;;;;;;5051704;28;20424;-64
2023/10/13 11:57:16;;;;;;;4.60;3.40;;;32.40;33.90;;;;;;5069889;28;20302;-65
2023/10/13 11:59:53;;;;;;;4.93;3.30;;;32.70;33.60;;;;;;5069777;28;20240;-64
2023/10/13 12:05:12;;;;;;;8.00;3.70;;;32.80;32.80;;;;;;5020510;28;20631;-64
2023/10/13 12:07:48;;;;;;;9.77;4.00;;;32.90;32.90;;;;;;5049765;28;20240;-64
2023/10/13 12:10:20;;;;;;;4.57;3.57;;;33.00;32.90;;;;;;5050109;28;20668;-66
2023/10/13 12:12:53;;;;;;;7.60;3.77;;;33.10;32.70;;;;;;5050901;28;20232;-64
2023/10/13 12:15:36;;;;;;;4.03;3.00;;;33.20;32.70;;;;;;5049916;28;20691;-65
2023/10/13 12:18:04;;;;;;;6.30;3.63;;;33.30;33.00;;;;;;5050205;28;20192;-64
2023/10/13 12:20:35;;;;;;;5.23;3.70;;;33.60;32.60;;;;;;5050076;28;20275;-64
2023/10/13 12:23:17;;;;;;;5.13;3.03;;;33.80;32.20;;;;;;5059776;28;20206;-65
2023/10/13 12:25:57;;;;;;;6.83;3.80;;;33.90;31.90;;;;;;5030157;28;20202;-64
2023/10/13 12:28:26;;;;;;;5.63;3.37;;;33.90;31.10;;;;;;4994874;28;20232;-65
2023/10/13 12:30:54;;;;;;;7.13;3.50;;;33.90;31.70;;;;;;5029953;28;20218;-65
2023/10/13 12:33:36;;;;;;;4.90;3.43;;;33.90;31.50;;;;;;5033565;28;20287;-64
2023/10/13 12:36:06;;;;;;;5.37;3.50;;;34.00;31.20;;;;;;5048830;28;20205;-64
2023/10/13 12:38:50;;;;;;;6.40;3.40;;;34.20;31.60;;;;;;5064157;28;20204;-65
2023/10/13 12:49:52;;;;;;;10.23;3.90;;;34.10;31.00;;;;;;5053402;28;20209;-64
2023/10/13 12:52:19;;;;;;;4.10;3.70;;;34.20;30.50;;;;;;5053665;28;20236;-63
2023/10/13 12:54:58;;;;;;;7.10;3.80;;;34.20;29.80;;;;;;5058950;28;20290;-65
2023/10/13 12:57:27;;;;;;;4.10;3.20;;;34.40;30.60;;;;;;5074350;28;20288;-65
2023/10/13 12:59:54;;;;;;;7.93;3.77;;;34.80;30.10;;;;;;5073993;28;20205;-65
2023/10/13 13:02:24;;;;;;;7.00;3.33;;;35.00;29.60;;;;;;5074133;28;20198;-64
2023/10/13 13:04:56;;;;;;;6.47;3.70;;;35.30;30.00;;;;;;5073881;28;20228;-64
2023/10/13 13:07:29;;;;;;;4.57;3.20;;;35.70;29.90;;;;;;5061415;28;20222;-65
2023/10/13 13:09:59;;;;;;;4.40;3.40;;;35.90;29.60;;;;;;5054042;28;20576;-65
2023/10/13 13:12:29;;;;;;;5.67;4.07;;;36.10;29.20;;;;;;5043777;28;20212;-65
2023/10/13 13:14:55;;;;;;;6.47;3.20;;;36.10;28.90;;;;;;5043530;28;20202;-64
2023/10/13 13:17:23;;;;;;;6.37;3.83;;;36.60;28.80;;;;;;5053779;28;20222;-63
2023/10/13 13:19:49;;;;;;;5.93;3.37;;;36.90;27.80;;;;;;5052553;28;20212;-65
2023/10/13 13:22:17;;;;;;;5.40;3.67;;;37.70;27.90;;;;;;5064903;28;20202;-66
2023/10/13 13:24:45;;;;;;;4.90;3.20;;;38.90;27.50;;;;;;5069472;28;20568;-66
2023/10/13 13:27:13;;;;;;;3.97;3.20;;;40.60;26.60;;;;;;5053640;28;20248;-67
2023/10/13 13:29:42;;;;;;;4.63;3.13;;;42.40;25.30;;;;;;5053624;28;20231;-66
2023/10/13 13:32:17;;;;;;;7.13;3.47;;;43.80;23.20;;;;;;5056806;28;20213;-66
2023/10/13 13:34:44;;;;;;;6.03;3.30;;;44.20;23.40;;;;;;5053166;28;20718;-65
2023/10/13 13:37:12;;;;;;;6.13;3.70;;;44.70;21.90;;;;;;5053851;28;20202;-66
2023/10/13 13:39:43;;;;;;;5.80;3.50;;;45.50;22.80;;;;;;5053517;28;20209;-67
2023/10/13 13:42:10;;;;;;;6.37;3.17;;;45.70;21.90;;;;;;5063524;28;20663;-67
2023/10/13 13:44:37;;;;;;;5.73;3.40;;;46.00;21.80;;;;;;5072186;28;20206;-66
2023/10/13 13:47:11;;;;;;;7.10;3.17;;;46.80;21.50;;;;;;5073017;28;20308;-66
2023/10/13 13:49:40;;;;;;;4.55;3.10;;;47.40;21.40;;;;;;5073034;28;20552;-66
2023/10/13 13:52:08;;;;;;;4.35;3.55;;;48.10;20.90;;;;;;5064942;28;20205;-65
2023/10/13 13:54:34;;;;;;;7.43;3.03;;;48.30;20.90;;;;;;5064020;28;20260;-66
2023/10/13 13:57:01;;;;;;;5.75;3.15;;;49.00;20.70;;;;;;5052875;28;20204;-66
2023/10/13 13:59:33;;;;;;;3.90;3.03;;;49.50;20.20;;;;;;5017877;28;20232;-67
2023/10/13 14:02:05;;;;;;;6.28;3.40;;;49.80;20.20;;;;;;5059336;28;20220;-67
2023/10/13 14:04:34;;;;;;;5.72;3.10;;;50.50;19.40;;;;;;5072742;28;20204;-65
2023/10/13 14:07:06;;;;;;;4.57;3.30;;;51.10;19.50;;;;;;5072474;28;20731;-66
2023/10/13 14:09:36;;;;;;;6.13;3.45;;;51.90;19.60;;;;;;5059424;28;20304;-67
2023/10/13 14:12:25;;;;;;;6.45;3.25;;;52.80;19.20;;;;;;5052945;28;20205;-66
2023/10/13 14:14:55;;;;;;;4.72;3.47;;;53.30;19.00;;;;;;5052766;28;20657;-66
2023/10/13 14:17:28;;;;;;;5.15;3.05;;;53.40;18.70;;;;;;5052543;28;20216;-65
2023/10/13 14:19:57;;;;;;;4.32;3.15;;;53.60;18.50;;;;;;5053911;28;20594;-67
2023/10/13 14:22:26;;;;;;;4.65;3.72;;;53.10;18.20;;;;;;5063969;28;20227;-67
2023/10/13 14:24:55;;;;;;;4.32;3.42;;;53.10;18.50;;;;;;5069704;28;20201;-66
2023/10/13 14:27:24;;;;;;;5.50;3.42;;;52.90;18.40;;;;;;5052310;28;20680;-67
2023/10/13 14:29:53;;;;;;;5.90;3.38;;;52.70;18.00;;;;;;5052336;28;20209;-66
2023/10/13 14:32:24;;;;;;;9.38;3.58;;;52.40;18.10;;;;;;5052590;28;20248;-66
2023/10/13 14:34:56;;;;;;;6.05;3.50;;;51.20;18.50;;;;;;5053715;28;20653;-66
2023/10/13 14:37:29;;;;;;;9.23;3.90;;;48.80;18.70;;;;;;5072257;28;20204;-66
2023/10/13 14:39:57;;;;;;;5.43;3.47;;;45.80;19.90;;;;;;5071904;28;20260;-66
2023/10/13 14:42:25;;;;;;;6.17;3.00;;;43.60;21.20;;;;;;5068147;28;20224;-67
2023/10/13 14:44:56;;;;;;;5.20;3.37;;;41.90;22.10;;;;;;5055879;28;20630;-66
2023/10/13 14:47:24;;;;;;;5.33;3.60;;;40.60;22.80;;;;;;5051654;28;20214;-66
2023/10/13 14:49:55;;;;;;;4.93;3.20;;;39.50;23.40;;;;;;5051735;28;20201;-65
2023/10/13 14:52:23;;;;;;;4.77;3.57;;;39.60;23.70;;;;;;5050786;28;20210;-65
2023/10/13 14:54:55;;;;;;;3.93;3.17;;;39.40;23.80;;;;;;5051842;28;20295;-65
2023/10/13 14:57:24;;;;;;;5.80;3.10;;;39.00;24.10;;;;;;5051922;28;20238;-65
2023/10/13 14:59:52;;;;;;;5.53;3.27;;;38.40;24.50;;;;;;5051980;28;20199;-65
2023/10/13 15:02:18;;;;;;;3.97;3.10;;;37.70;25.00;;;;;;5051638;28;20772;-66
2023/10/13 15:04:48;;;;;;;4.00;3.40;;;37.20;25.30;;;;;;5053768;28;20262;-64
2023/10/13 15:07:16;;;;;;;4.70;3.27;;;36.80;25.50;;;;;;5051417;28;20662;-64
2023/10/13 15:09:44;;;;;;;4.17;3.40;;;36.50;26.00;;;;;;5051116;28;20717;-65